sensor_id;sensor_type;location;lat;lon;timestamp;pressure;altitude;pressure_sealevel;temperature;humidity
75668;BME280;64266;48.798;44.756;2024-01-30T00:03:12;103626.97;;;1.53;58.02
75668;BME280;64266;48.798;44.756;2024-01-30T00:08:16;103626.03;;;1.54;59.31
75668;BME280;64266;48.798;44.756;2024-01-30T00:13:19;103616.19;;;1.44;59.13
75668;BME280;64266;48.798;44.756;2024-01-30T00:18:22;103547.44;;;1.12;60.47
75668;BME280;64266;48.798;44.756;2024-01-30T00:23:26;103571.09;;;1.40;58.16
75668;BME280;64266;48.798;44.756;2024-01-30T00:28:31;103584.84;;;1.58;58.12
75668;BME280;64266;48.798;44.756;2024-01-30T00:33:34;103571.34;;;1.36;59.14
75668;BME280;64266;48.798;44.756;2024-01-30T00:38:39;103581.75;;;1.51;59.71
75668;BME280;64266;48.798;44.756;2024-01-30T00:43:44;103554.66;;;1.38;59.58
75668;BME280;64266;48.798;44.756;2024-01-30T00:48:48;103571.56;;;1.47;59.37
75668;BME280;64266;48.798;44.756;2024-01-30T00:53:51;103568.66;;;1.51;58.10
75668;BME280;64266;48.798;44.756;2024-01-30T00:58:55;103561.97;;;1.47;58.72
75668;BME280;64266;48.798;44.756;2024-01-30T01:03:58;103536.72;;;1.32;58.49
75668;BME280;64266;48.798;44.756;2024-01-30T01:09:01;103544.56;;;1.46;58.13
75668;BME280;64266;48.798;44.756;2024-01-30T01:14:06;103563.50;;;1.66;58.99
75668;BME280;64266;48.798;44.756;2024-01-30T01:19:09;103510.22;;;1.38;57.67
75668;BME280;64266;48.798;44.756;2024-01-30T01:24:12;103538.69;;;1.57;59.13
75668;BME280;64266;48.798;44.756;2024-01-30T01:29:16;103560.69;;;1.69;58.31
75668;BME280;64266;48.798;44.756;2024-01-30T01:34:19;103485.28;;;1.47;58.82
75668;BME280;64266;48.798;44.756;2024-01-30T01:39:22;103520.50;;;1.70;58.79
75668;BME280;64266;48.798;44.756;2024-01-30T01:44:28;103564.38;;;2.08;57.63
75668;BME280;64266;48.798;44.756;2024-01-30T01:49:31;103562.22;;;2.01;57.26
75668;BME280;64266;48.798;44.756;2024-01-30T01:54:34;103440.44;;;1.25;56.96
75668;BME280;64266;48.798;44.756;2024-01-30T01:59:37;103529.88;;;2.02;57.78
75668;BME280;64266;48.798;44.756;2024-01-30T02:04:40;103565.97;;;2.39;55.63
75668;BME280;64266;48.798;44.756;2024-01-30T02:09:43;103458.69;;;1.83;55.90
75668;BME280;64266;48.798;44.756;2024-01-30T02:14:48;103528.22;;;2.15;56.33
75668;BME280;64266;48.798;44.756;2024-01-30T02:19:52;103493.63;;;1.96;56.20
75668;BME280;64266;48.798;44.756;2024-01-30T02:24:56;103525.47;;;2.16;55.56
75668;BME280;64266;48.798;44.756;2024-01-30T02:29:59;103529.16;;;2.00;58.00
75668;BME280;64266;48.798;44.756;2024-01-30T02:35:05;103553.34;;;2.17;56.30
75668;BME280;64266;48.798;44.756;2024-01-30T02:40:08;103504.25;;;2.07;57.66
75668;BME280;64266;48.798;44.756;2024-01-30T02:45:13;103522.78;;;2.18;57.44
75668;BME280;64266;48.798;44.756;2024-01-30T02:50:16;103459.03;;;1.91;58.51
75668;BME280;64266;48.798;44.756;2024-01-30T02:55:19;103487.81;;;2.05;57.42
75668;BME280;64266;48.798;44.756;2024-01-30T03:00:23;103486.28;;;2.29;57.83
75668;BME280;64266;48.798;44.756;2024-01-30T03:05:26;103453.41;;;2.11;57.17
75668;BME280;64266;48.798;44.756;2024-01-30T03:10:29;103423.06;;;1.94;56.05
75668;BME280;64266;48.798;44.756;2024-01-30T03:15:32;103482.75;;;2.16;57.47
75668;BME280;64266;48.798;44.756;2024-01-30T03:20:36;103498.00;;;2.09;57.28
75668;BME280;64266;48.798;44.756;2024-01-30T03:25:39;103491.38;;;1.90;58.36
75668;BME280;64266;48.798;44.756;2024-01-30T03:30:42;103423.75;;;1.55;57.93
75668;BME280;64266;48.798;44.756;2024-01-30T03:35:45;103512.03;;;2.08;57.28
75668;BME280;64266;48.798;44.756;2024-01-30T03:40:48;103493.31;;;2.00;58.35
75668;BME280;64266;48.798;44.756;2024-01-30T03:45:51;103488.19;;;2.13;58.10
75668;BME280;64266;48.798;44.756;2024-01-30T03:50:54;103459.97;;;2.04;57.53
75668;BME280;64266;48.798;44.756;2024-01-30T03:55:58;103443.53;;;2.02;58.30
75668;BME280;64266;48.798;44.756;2024-01-30T04:01:19;103429.13;;;1.95;58.21
75668;BME280;64266;48.798;44.756;2024-01-30T04:06:22;103432.28;;;2.14;57.09
75668;BME280;64266;48.798;44.756;2024-01-30T04:11:26;103446.94;;;2.31;57.48
75668;BME280;64266;48.798;44.756;2024-01-30T04:16:29;103472.66;;;2.24;58.10
75668;BME280;64266;48.798;44.756;2024-01-30T04:21:33;103457.69;;;2.26;59.58
75668;BME280;64266;48.798;44.756;2024-01-30T04:26:37;103448.16;;;2.25;58.92
75668;BME280;64266;48.798;44.756;2024-01-30T04:31:40;103477.59;;;2.43;58.50
75668;BME280;64266;48.798;44.756;2024-01-30T04:36:44;103413.28;;;2.25;57.94
75668;BME280;64266;48.798;44.756;2024-01-30T04:41:48;103485.78;;;2.78;57.33
75668;BME280;64266;48.798;44.756;2024-01-30T04:46:52;103364.97;;;2.16;57.54
75668;BME280;64266;48.798;44.756;2024-01-30T04:51:55;103387.00;;;2.26;57.39
75668;BME280;64266;48.798;44.756;2024-01-30T04:56:58;103422.28;;;2.47;56.68
75668;BME280;64266;48.798;44.756;2024-01-30T05:02:01;103449.03;;;2.65;58.59
75668;BME280;64266;48.798;44.756;2024-01-30T05:07:05;103446.56;;;2.49;58.26
75668;BME280;64266;48.798;44.756;2024-01-30T05:12:08;103422.47;;;2.44;57.70
75668;BME280;64266;48.798;44.756;2024-01-30T05:17:11;103464.09;;;2.49;58.40
75668;BME280;64266;48.798;44.756;2024-01-30T05:22:15;103446.28;;;2.54;59.50
75668;BME280;64266;48.798;44.756;2024-01-30T05:27:21;103449.59;;;2.43;58.28
75668;BME280;64266;48.798;44.756;2024-01-30T05:32:25;103438.19;;;2.44;59.15
75668;BME280;64266;48.798;44.756;2024-01-30T05:37:30;103452.91;;;2.59;58.61
75668;BME280;64266;48.798;44.756;2024-01-30T05:42:32;103433.47;;;2.49;60.09
75668;BME280;64266;48.798;44.756;2024-01-30T05:47:35;103427.97;;;2.54;58.41
75668;BME280;64266;48.798;44.756;2024-01-30T05:52:38;103433.03;;;2.69;57.82
75668;BME280;64266;48.798;44.756;2024-01-30T05:57:41;103423.28;;;2.71;58.06
75668;BME280;64266;48.798;44.756;2024-01-30T06:02:44;103436.56;;;2.95;58.50
75668;BME280;64266;48.798;44.756;2024-01-30T06:07:48;103392.00;;;2.83;56.22
75668;BME280;64266;48.798;44.756;2024-01-30T06:12:52;103428.41;;;3.00;56.47
75668;BME280;64266;48.798;44.756;2024-01-30T06:17:55;103404.50;;;3.04;57.25
75668;BME280;64266;48.798;44.756;2024-01-30T06:22:58;103401.34;;;3.12;56.18
75668;BME280;64266;48.798;44.756;2024-01-30T06:28:01;103382.56;;;2.93;56.78
75668;BME280;64266;48.798;44.756;2024-01-30T06:33:04;103401.56;;;3.09;55.88
75668;BME280;64266;48.798;44.756;2024-01-30T06:38:07;103328.97;;;2.71;56.27
75668;BME280;64266;48.798;44.756;2024-01-30T06:43:10;103382.38;;;3.34;57.66
75668;BME280;64266;48.798;44.756;2024-01-30T06:48:14;103373.66;;;3.33;56.73
75668;BME280;64266;48.798;44.756;2024-01-30T06:53:16;103381.22;;;3.50;55.36
75668;BME280;64266;48.798;44.756;2024-01-30T06:58:20;103362.91;;;3.74;55.16
75668;BME280;64266;48.798;44.756;2024-01-30T07:03:27;103348.72;;;3.76;55.56
75668;BME280;64266;48.798;44.756;2024-01-30T07:08:30;103368.44;;;3.82;54.94
75668;BME280;64266;48.798;44.756;2024-01-30T07:13:34;103334.91;;;3.62;54.72
75668;BME280;64266;48.798;44.756;2024-01-30T07:18:38;103346.59;;;3.81;55.55
75668;BME280;64266;48.798;44.756;2024-01-30T07:23:41;103344.56;;;3.98;54.13
75668;BME280;64266;48.798;44.756;2024-01-30T07:28:44;103337.75;;;3.95;53.94
75668;BME280;64266;48.798;44.756;2024-01-30T07:33:48;103344.19;;;4.15;53.98
75668;BME280;64266;48.798;44.756;2024-01-30T07:38:51;103310.88;;;3.92;54.06
75668;BME280;64266;48.798;44.756;2024-01-30T07:43:57;103314.03;;;3.97;54.55
75668;BME280;64266;48.798;44.756;2024-01-30T07:49:01;103291.38;;;3.83;54.40
75668;BME280;64266;48.798;44.756;2024-01-30T07:54:04;103300.19;;;3.82;55.30
75668;BME280;64266;48.798;44.756;2024-01-30T07:59:11;103295.06;;;3.80;54.27
75668;BME280;64266;48.798;44.756;2024-01-30T08:04:14;103254.91;;;3.67;54.35
75668;BME280;64266;48.798;44.756;2024-01-30T08:09:18;103259.06;;;3.82;55.35
75668;BME280;64266;48.798;44.756;2024-01-30T08:14:22;103234.94;;;3.77;55.45
75668;BME280;64266;48.798;44.756;2024-01-30T08:19:25;103247.66;;;3.71;55.95
75668;BME280;64266;48.798;44.756;2024-01-30T08:24:28;103251.91;;;3.84;56.54
75668;BME280;64266;48.798;44.756;2024-01-30T08:29:32;103239.63;;;3.85;56.21
75668;BME280;64266;48.798;44.756;2024-01-30T08:34:35;103217.38;;;4.02;56.82
75668;BME280;64266;48.798;44.756;2024-01-30T08:40:31;103203.78;;;4.08;55.10
75668;BME280;64266;48.798;44.756;2024-01-30T08:45:34;103198.16;;;4.01;55.19
75668;BME280;64266;48.798;44.756;2024-01-30T08:50:37;103168.88;;;3.83;55.25
75668;BME280;64266;48.798;44.756;2024-01-30T08:55:40;103152.03;;;3.75;56.21
75668;BME280;64266;48.798;44.756;2024-01-30T09:00:47;103170.75;;;4.16;55.48
75668;BME280;64266;48.798;44.756;2024-01-30T09:05:51;103115.22;;;3.99;55.50
75668;BME280;64266;48.798;44.756;2024-01-30T09:10:54;103098.53;;;4.11;54.77
75668;BME280;64266;48.798;44.756;2024-01-30T09:15:57;103079.78;;;3.93;54.87
75668;BME280;64266;48.798;44.756;2024-01-30T09:21:01;103117.78;;;4.45;55.96
75668;BME280;64266;48.798;44.756;2024-01-30T09:26:04;103056.78;;;4.08;56.01
75668;BME280;64266;48.798;44.756;2024-01-30T09:31:10;103068.00;;;4.21;55.06
75668;BME280;64266;48.798;44.756;2024-01-30T09:36:13;103038.13;;;4.22;55.85
75668;BME280;64266;48.798;44.756;2024-01-30T09:41:19;103051.41;;;4.43;54.80
75668;BME280;64266;48.798;44.756;2024-01-30T09:46:28;102985.41;;;4.03;56.62
75668;BME280;64266;48.798;44.756;2024-01-30T09:51:31;103030.66;;;4.71;55.46
75668;BME280;64266;48.798;44.756;2024-01-30T09:56:35;103042.66;;;4.53;55.78
75668;BME280;64266;48.798;44.756;2024-01-30T10:01:38;103026.56;;;4.35;56.11
75668;BME280;64266;48.798;44.756;2024-01-30T10:06:42;103009.97;;;4.35;56.22
75668;BME280;64266;48.798;44.756;2024-01-30T10:11:46;102992.69;;;3.88;56.14
75668;BME280;64266;48.798;44.756;2024-01-30T10:16:49;103015.72;;;3.96;57.50
75668;BME280;64266;48.798;44.756;2024-01-30T10:22:44;103003.03;;;3.67;57.42
75668;BME280;64266;48.798;44.756;2024-01-30T10:27:53;102997.34;;;3.96;57.75
75668;BME280;64266;48.798;44.756;2024-01-30T10:33:02;102981.22;;;3.89;57.85
75668;BME280;64266;48.798;44.756;2024-01-30T10:38:08;103003.16;;;3.88;58.32
75668;BME280;64266;48.798;44.756;2024-01-30T10:43:15;102978.47;;;3.79;58.67
75668;BME280;64266;48.798;44.756;2024-01-30T10:48:26;102967.25;;;4.11;58.52
75668;BME280;64266;48.798;44.756;2024-01-30T10:53:33;102979.56;;;4.21;57.96
75668;BME280;64266;48.798;44.756;2024-01-30T10:58:36;102957.47;;;4.24;57.35
75668;BME280;64266;48.798;44.756;2024-01-30T11:03:39;102964.25;;;4.15;56.98
75668;BME280;64266;48.798;44.756;2024-01-30T11:08:42;102940.66;;;4.04;56.67
75668;BME280;64266;48.798;44.756;2024-01-30T11:13:45;102934.22;;;3.86;57.63
75668;BME280;64266;48.798;44.756;2024-01-30T11:18:52;102961.06;;;3.90;57.27
75668;BME280;64266;48.798;44.756;2024-01-30T11:23:56;102956.41;;;3.82;59.08
75668;BME280;64266;48.798;44.756;2024-01-30T11:29:07;102929.97;;;3.63;58.53
75668;BME280;64266;48.798;44.756;2024-01-30T11:34:10;102963.47;;;3.93;58.22
75668;BME280;64266;48.798;44.756;2024-01-30T11:39:17;102934.81;;;3.78;59.10
75668;BME280;64266;48.798;44.756;2024-01-30T11:44:21;102956.06;;;3.87;58.09
75668;BME280;64266;48.798;44.756;2024-01-30T11:49:25;102933.16;;;3.55;58.83
75668;BME280;64266;48.798;44.756;2024-01-30T11:54:31;102942.59;;;3.80;59.02
75668;BME280;64266;48.798;44.756;2024-01-30T11:59:36;102932.44;;;3.87;58.99
75668;BME280;64266;48.798;44.756;2024-01-30T12:05:06;102936.50;;;3.79;59.34
75668;BME280;64266;48.798;44.756;2024-01-30T12:10:09;102927.66;;;3.69;60.47
75668;BME280;64266;48.798;44.756;2024-01-30T12:15:14;102916.84;;;3.63;59.40
75668;BME280;64266;48.798;44.756;2024-01-30T12:20:19;102931.84;;;3.61;59.54
75668;BME280;64266;48.798;44.756;2024-01-30T12:25:24;102933.75;;;3.59;60.16
75668;BME280;64266;48.798;44.756;2024-01-30T12:30:29;102911.34;;;3.55;60.40
75668;BME280;64266;48.798;44.756;2024-01-30T12:35:34;102928.25;;;3.51;60.11
75668;BME280;64266;48.798;44.756;2024-01-30T12:40:38;102924.09;;;3.59;59.59
75668;BME280;64266;48.798;44.756;2024-01-30T12:45:43;102924.06;;;3.37;59.77
75668;BME280;64266;48.798;44.756;2024-01-30T12:50:48;102897.94;;;3.13;59.54
75668;BME280;64266;48.798;44.756;2024-01-30T12:55:52;102920.25;;;3.19;60.46
75668;BME280;64266;48.798;44.756;2024-01-30T13:00:58;102913.16;;;3.08;60.31
75668;BME280;64266;48.798;44.756;2024-01-30T13:06:03;102903.28;;;3.01;60.69
75668;BME280;64266;48.798;44.756;2024-01-30T13:11:07;102908.78;;;3.09;60.26
75668;BME280;64266;48.798;44.756;2024-01-30T13:16:22;102925.94;;;3.13;60.36
75668;BME280;64266;48.798;44.756;2024-01-30T13:21:26;102920.78;;;3.00;60.17
75668;BME280;64266;48.798;44.756;2024-01-30T13:26:32;102921.13;;;2.96;60.61
75668;BME280;64266;48.798;44.756;2024-01-30T13:31:35;102915.28;;;2.92;60.84
75668;BME280;64266;48.798;44.756;2024-01-30T13:36:42;102816.47;;;2.25;61.33
75668;BME280;64266;48.798;44.756;2024-01-30T13:41:46;102886.41;;;2.70;61.19
75668;BME280;64266;48.798;44.756;2024-01-30T13:46:51;102888.41;;;2.66;61.21
75668;BME280;64266;48.798;44.756;2024-01-30T13:51:55;102902.13;;;2.70;61.82
75668;BME280;64266;48.798;44.756;2024-01-30T13:57:00;102896.75;;;2.71;62.24
75668;BME280;64266;48.798;44.756;2024-01-30T14:02:03;102881.72;;;2.62;60.40
75668;BME280;64266;48.798;44.756;2024-01-30T14:07:06;102913.75;;;2.66;61.78
75668;BME280;64266;48.798;44.756;2024-01-30T14:12:13;102857.13;;;2.41;61.25
75668;BME280;64266;48.798;44.756;2024-01-30T14:17:17;102876.75;;;2.70;60.68
75668;BME280;64266;48.798;44.756;2024-01-30T14:22:21;102883.19;;;2.78;60.67
75668;BME280;64266;48.798;44.756;2024-01-30T14:27:24;102895.50;;;2.88;60.98
75668;BME280;64266;48.798;44.756;2024-01-30T14:32:27;102865.53;;;2.68;59.82
75668;BME280;64266;48.798;44.756;2024-01-30T14:37:30;102867.19;;;2.58;59.94
75668;BME280;64266;48.798;44.756;2024-01-30T14:42:33;102900.59;;;2.79;59.86
75668;BME280;64266;48.798;44.756;2024-01-30T14:47:37;102842.28;;;2.53;60.93
75668;BME280;64266;48.798;44.756;2024-01-30T14:52:41;102921.50;;;3.02;59.92
75668;BME280;64266;48.798;44.756;2024-01-30T14:57:44;102923.78;;;3.07;60.82
75668;BME280;64266;48.798;44.756;2024-01-30T15:02:48;102916.16;;;3.15;59.13
75668;BME280;64266;48.798;44.756;2024-01-30T15:07:51;102890.91;;;3.14;60.44
75668;BME280;64266;48.798;44.756;2024-01-30T15:12:57;102880.78;;;2.98;59.70
75668;BME280;64266;48.798;44.756;2024-01-30T15:18:00;102894.97;;;3.07;59.63
75668;BME280;64266;48.798;44.756;2024-01-30T15:23:03;102904.75;;;3.16;59.22
75668;BME280;64266;48.798;44.756;2024-01-30T15:28:08;102864.84;;;2.78;59.79
75668;BME280;64266;48.798;44.756;2024-01-30T15:33:13;102882.28;;;2.90;60.28
75668;BME280;64266;48.798;44.756;2024-01-30T15:38:16;102896.25;;;3.01;59.34
75668;BME280;64266;48.798;44.756;2024-01-30T15:43:21;102887.28;;;2.93;59.02
75668;BME280;64266;48.798;44.756;2024-01-30T15:48:25;102890.22;;;2.77;60.11
75668;BME280;64266;48.798;44.756;2024-01-30T15:53:28;102884.63;;;2.70;59.39
75668;BME280;64266;48.798;44.756;2024-01-30T15:58:31;102897.34;;;2.75;60.84
75668;BME280;64266;48.798;44.756;2024-01-30T16:03:35;102879.47;;;2.69;59.95
75668;BME280;64266;48.798;44.756;2024-01-30T16:08:40;102917.56;;;3.08;60.10
75668;BME280;64266;48.798;44.756;2024-01-30T16:13:45;102894.81;;;3.08;58.66
75668;BME280;64266;48.798;44.756;2024-01-30T16:18:53;102876.19;;;2.89;58.15
75668;BME280;64266;48.798;44.756;2024-01-30T16:23:57;102881.56;;;2.88;57.88
75668;BME280;64266;48.798;44.756;2024-01-30T16:29:03;102861.06;;;2.82;59.93
75668;BME280;64266;48.798;44.756;2024-01-30T16:34:06;102889.59;;;3.08;58.49
75668;BME280;64266;48.798;44.756;2024-01-30T16:39:11;102879.47;;;3.04;59.13
75668;BME280;64266;48.798;44.756;2024-01-30T16:44:15;102892.09;;;3.10;58.90
75668;BME280;64266;48.798;44.756;2024-01-30T16:49:18;102877.19;;;2.99;58.32
75668;BME280;64266;48.798;44.756;2024-01-30T16:54:22;102886.50;;;3.14;58.69
75668;BME280;64266;48.798;44.756;2024-01-30T16:59:25;102874.84;;;3.07;58.18
75668;BME280;64266;48.798;44.756;2024-01-30T17:04:28;102875.78;;;3.06;58.33
75668;BME280;64266;48.798;44.756;2024-01-30T17:09:31;102891.41;;;3.19;57.76
75668;BME280;64266;48.798;44.756;2024-01-30T17:14:34;102893.53;;;3.14;58.15
75668;BME280;64266;48.798;44.756;2024-01-30T17:19:42;102849.78;;;2.92;57.94
75668;BME280;64266;48.798;44.756;2024-01-30T17:24:45;102869.34;;;3.10;58.26
75668;BME280;64266;48.798;44.756;2024-01-30T17:29:53;102873.66;;;3.22;58.16
75668;BME280;64266;48.798;44.756;2024-01-30T17:34:55;102869.69;;;3.17;58.63
75668;BME280;64266;48.798;44.756;2024-01-30T17:39:58;102840.63;;;3.09;57.41
75668;BME280;64266;48.798;44.756;2024-01-30T17:45:04;102892.72;;;3.24;57.43
75668;BME280;64266;48.798;44.756;2024-01-30T17:50:08;102862.19;;;3.12;57.83
75668;BME280;64266;48.798;44.756;2024-01-30T17:55:12;102858.78;;;3.23;57.64
75668;BME280;64266;48.798;44.756;2024-01-30T18:00:17;102829.16;;;2.99;58.57
75668;BME280;64266;48.798;44.756;2024-01-30T18:05:22;102868.75;;;3.18;58.10
75668;BME280;64266;48.798;44.756;2024-01-30T18:10:26;102855.41;;;3.21;58.46
75668;BME280;64266;48.798;44.756;2024-01-30T18:15:31;102866.38;;;3.37;58.04
75668;BME280;64266;48.798;44.756;2024-01-30T18:20:39;102888.44;;;3.46;57.24
75668;BME280;64266;48.798;44.756;2024-01-30T18:25:44;102866.38;;;3.37;57.50
75668;BME280;64266;48.798;44.756;2024-01-30T18:30:47;102797.63;;;3.00;57.86
75668;BME280;64266;48.798;44.756;2024-01-30T18:35:50;102883.06;;;3.58;57.37
75668;BME280;64266;48.798;44.756;2024-01-30T18:40:53;102866.63;;;3.34;57.30
75668;BME280;64266;48.798;44.756;2024-01-30T18:45:57;102879.97;;;3.42;57.41
75668;BME280;64266;48.798;44.756;2024-01-30T18:51:02;102813.09;;;3.03;58.15
75668;BME280;64266;48.798;44.756;2024-01-30T18:56:06;102869.59;;;3.52;57.90
75668;BME280;64266;48.798;44.756;2024-01-30T19:01:10;102895.13;;;3.61;56.80
75668;BME280;64266;48.798;44.756;2024-01-30T19:06:15;102914.31;;;3.50;56.96
75668;BME280;64266;48.798;44.756;2024-01-30T19:11:19;102857.78;;;3.24;58.21
75668;BME280;64266;48.798;44.756;2024-01-30T19:16:23;102831.81;;;3.21;57.69
75668;BME280;64266;48.798;44.756;2024-01-30T19:21:26;102887.72;;;3.44;57.86
75668;BME280;64266;48.798;44.756;2024-01-30T19:26:29;102883.09;;;3.47;58.16
75668;BME280;64266;48.798;44.756;2024-01-30T19:31:32;102851.72;;;3.35;58.39
75668;BME280;64266;48.798;44.756;2024-01-30T19:36:35;102863.28;;;3.54;57.76
75668;BME280;64266;48.798;44.756;2024-01-30T19:41:41;102874.13;;;3.61;57.62
75668;BME280;64266;48.798;44.756;2024-01-30T19:46:46;102863.28;;;3.54;56.23
75668;BME280;64266;48.798;44.756;2024-01-30T19:51:49;102880.09;;;3.52;57.71
75668;BME280;64266;48.798;44.756;2024-01-30T19:56:53;102843.59;;;3.26;58.20
75668;BME280;64266;48.798;44.756;2024-01-30T20:01:56;102831.59;;;3.13;59.11
75668;BME280;64266;48.798;44.756;2024-01-30T20:07:00;102876.63;;;3.51;57.64
75668;BME280;64266;48.798;44.756;2024-01-30T20:12:04;102887.59;;;3.34;57.41
75668;BME280;64266;48.798;44.756;2024-01-30T20:17:07;102847.66;;;3.31;57.43
75668;BME280;64266;48.798;44.756;2024-01-30T20:22:10;102895.13;;;3.61;57.40
75668;BME280;64266;48.798;44.756;2024-01-30T20:27:14;102866.25;;;3.61;56.90
75668;BME280;64266;48.798;44.756;2024-01-30T20:32:17;102899.88;;;3.67;57.28
75668;BME280;64266;48.798;44.756;2024-01-30T20:37:20;102869.13;;;3.47;57.08
75668;BME280;64266;48.798;44.756;2024-01-30T20:42:23;102846.00;;;3.41;58.37
75668;BME280;64266;48.798;44.756;2024-01-30T20:47:26;102828.59;;;3.17;57.55
75668;BME280;64266;48.798;44.756;2024-01-30T20:52:31;102892.16;;;3.65;56.66
75668;BME280;64266;48.798;44.756;2024-01-30T20:57:35;102830.88;;;3.33;56.88
75668;BME280;64266;48.798;44.756;2024-01-30T21:02:39;102882.13;;;3.59;56.94
75668;BME280;64266;48.798;44.756;2024-01-30T21:07:42;102886.66;;;3.57;57.54
75668;BME280;64266;48.798;44.756;2024-01-30T21:12:45;102887.72;;;3.55;57.98
75668;BME280;64266;48.798;44.756;2024-01-30T21:17:48;102885.34;;;3.52;58.23
75668;BME280;64266;48.798;44.756;2024-01-30T21:22:51;102875.56;;;3.65;57.08
75668;BME280;64266;48.798;44.756;2024-01-30T21:27:55;102820.75;;;3.28;56.80
75668;BME280;64266;48.798;44.756;2024-01-30T21:33:00;102853.72;;;3.20;58.17
75668;BME280;64266;48.798;44.756;2024-01-30T21:38:03;102841.59;;;3.19;58.29
75668;BME280;64266;48.798;44.756;2024-01-30T21:43:07;102880.09;;;3.52;58.19
75668;BME280;64266;48.798;44.756;2024-01-30T21:48:11;102874.84;;;3.52;57.66
75668;BME280;64266;48.798;44.756;2024-01-30T21:53:14;102878.09;;;3.44;58.04
75668;BME280;64266;48.798;44.756;2024-01-30T21:58:18;102869.75;;;3.50;57.61
75668;BME280;64266;48.798;44.756;2024-01-30T22:03:22;102897.38;;;3.76;57.35
75668;BME280;64266;48.798;44.756;2024-01-30T22:08:25;102876.16;;;3.68;57.35
75668;BME280;64266;48.798;44.756;2024-01-30T22:13:29;102894.88;;;3.75;57.49
75668;BME280;64266;48.798;44.756;2024-01-30T22:18:32;102871.38;;;3.51;58.13
75668;BME280;64266;48.798;44.756;2024-01-30T22:23:35;102873.66;;;3.67;57.19
75668;BME280;64266;48.798;44.756;2024-01-30T22:28:38;102876.66;;;3.62;56.67
75668;BME280;64266;48.798;44.756;2024-01-30T22:33:42;102888.09;;;3.50;57.56
75668;BME280;64266;48.798;44.756;2024-01-30T22:38:45;102880.22;;;3.39;58.47
75668;BME280;64266;48.798;44.756;2024-01-30T22:43:48;102906.69;;;3.58;58.15
75668;BME280;64266;48.798;44.756;2024-01-30T22:48:51;102907.03;;;3.54;58.70
75668;BME280;64266;48.798;44.756;2024-01-30T22:53:54;102917.66;;;3.74;58.26
75668;BME280;64266;48.798;44.756;2024-01-30T22:58:57;102905.25;;;3.54;57.87
75668;BME280;64266;48.798;44.756;2024-01-30T23:04:00;102923.75;;;3.53;59.20
75668;BME280;64266;48.798;44.756;2024-01-30T23:09:04;102921.59;;;3.58;58.15
75668;BME280;64266;48.798;44.756;2024-01-30T23:14:07;102897.63;;;3.40;57.84
75668;BME280;64266;48.798;44.756;2024-01-30T23:19:10;102899.31;;;3.41;58.17
75668;BME280;64266;48.798;44.756;2024-01-30T23:24:13;102890.13;;;3.47;58.42
75668;BME280;64266;48.798;44.756;2024-01-30T23:29:18;102925.03;;;3.69;59.26
75668;BME280;64266;48.798;44.756;2024-01-30T23:34:21;102917.78;;;3.62;58.46
75668;BME280;64266;48.798;44.756;2024-01-30T23:39:24;102913.25;;;3.53;58.46
75668;BME280;64266;48.798;44.756;2024-01-30T23:44:28;102887.50;;;3.47;59.35
75668;BME280;64266;48.798;44.756;2024-01-30T23:49:31;102903.22;;;3.47;59.53
75668;BME280;64266;48.798;44.756;2024-01-30T23:54:35;102915.88;;;3.64;59.51
75668;BME280;64266;48.798;44.756;2024-01-30T23:59:38;102912.16;;;3.66;59.29
